Bradfordton, Illinois
Current Conditions -  °F | °C
As of 2:52 AM on Sunday 23 Nov 2014 (Local Time) from KSPI Reporting Station
Clear Clear  
Wind Chill: 52°   Ceiling: Unl
Heat Index: 52°   Visibility: 10mi
Dew Point: 43°   Wind: 16mph
Humidity: 71%   Direction: 170°S
Pressure: 29.78"   Gusts: NA
Location:  39.854°N, 89.6295°W
Report Text: KSPI 230852Z AUTO 17014KT 10SM CLR 11/06 A2978 RMK AO2 SLP085 T01110061 58021
Loading
Personal Weather Stations






























Interactive Weather Map New forecast layout! Learn more

10-Day Weather Forecast

Advertisements
Track Severe Weather on mobile